createdAt,value
2019-04-03T00:02:09.796Z,232
2019-04-03T00:07:09.676Z,233
2019-04-03T00:12:10.421Z,233
2019-04-03T00:17:09.687Z,233
2019-04-03T00:22:09.806Z,232
2019-04-03T00:23:52.120Z,232
2019-04-03T00:23:54.639Z,232
2019-04-03T00:24:02.613Z,233
2019-04-03T00:24:06.619Z,233
2019-04-03T00:27:09.688Z,233
2019-04-03T00:32:09.659Z,232
2019-04-03T00:37:09.674Z,231
2019-04-03T00:42:09.769Z,232
2019-04-03T00:47:09.670Z,231
2019-04-03T00:52:09.618Z,233
2019-04-03T00:57:09.665Z,232
2019-04-03T01:02:09.655Z,232
2019-04-03T01:07:09.648Z,233
2019-04-03T01:12:09.748Z,233
2019-04-03T01:12:17.573Z,233
2019-04-03T01:12:30.333Z,233
2019-04-03T01:17:09.622Z,232
2019-04-03T01:22:09.638Z,232
2019-04-03T01:24:45.595Z,232
2019-04-03T01:24:49.550Z,233
2019-04-03T01:27:11.494Z,232
2019-04-03T01:28:57.558Z,231
2019-04-03T01:29:01.728Z,232
2019-04-03T01:32:05.586Z,231
2019-04-03T01:32:09.595Z,232
2019-04-03T01:32:09.631Z,232
2019-04-03T01:32:25.635Z,232
2019-04-03T01:32:29.548Z,231
2019-04-03T01:36:49.582Z,233
2019-04-03T01:36:53.540Z,233
2019-04-03T01:37:09.574Z,233
2019-04-03T01:42:09.595Z,233
2019-04-03T01:43:37.542Z,233
2019-04-03T01:43:41.552Z,233
2019-04-03T01:47:09.596Z,234
2019-04-03T01:47:53.563Z,232
2019-04-03T01:48:01.634Z,233
2019-04-03T01:52:09.576Z,234
2019-04-03T01:52:17.588Z,234
2019-04-03T01:52:49.555Z,235
2019-04-03T01:54:17.532Z,233
2019-04-03T01:54:21.615Z,232
2019-04-03T01:57:09.564Z,233
2019-04-03T02:02:09.596Z,230
2019-04-03T02:07:09.582Z,230
2019-04-03T02:09:21.526Z,231
2019-04-03T02:09:25.540Z,231
2019-04-03T02:09:29.508Z,231
2019-04-03T02:09:37.628Z,230
2019-04-03T02:12:09.638Z,231
2019-04-03T02:17:09.554Z,231
2019-04-03T02:22:09.596Z,231
2019-04-03T02:23:17.508Z,232
2019-04-03T02:23:21.521Z,233
2019-04-03T02:25:09.491Z,231
2019-04-03T02:25:25.537Z,231
2019-04-03T02:27:09.536Z,230
2019-04-03T02:32:09.710Z,229
2019-04-03T02:37:09.836Z,228
2019-04-03T02:39:05.519Z,231
2019-04-03T02:39:09.477Z,231
2019-04-03T02:42:09.913Z,231
2019-04-03T02:47:09.516Z,231
2019-04-03T02:52:09.565Z,231
2019-04-03T02:57:09.501Z,225
2019-04-03T02:58:25.684Z,227
2019-04-03T02:58:29.468Z,227
2019-04-03T03:02:11.819Z,227
2019-04-03T03:07:09.534Z,230
2019-04-03T03:12:09.495Z,227
2019-04-03T03:12:41.477Z,227
2019-04-03T03:12:45.484Z,228
2019-04-03T03:17:09.546Z,228
2019-04-03T03:22:09.491Z,228
2019-04-03T03:27:10.150Z,226
2019-04-03T03:32:36.575Z,226
2019-04-03T03:37:12.174Z,225
2019-04-03T03:42:09.504Z,225
2019-04-03T03:47:09.462Z,225
2019-04-03T03:52:09.501Z,224
2019-04-03T03:57:09.470Z,221
2019-04-03T04:02:09.475Z,222
2019-04-03T04:07:09.465Z,221
2019-04-03T04:12:09.719Z,223
2019-04-03T04:17:14.568Z,225
2019-04-03T04:22:09.447Z,225
2019-04-03T04:27:09.673Z,224
2019-04-03T04:32:09.473Z,223
2019-04-03T04:37:09.422Z,221
2019-04-03T04:42:09.421Z,216
2019-04-03T04:47:09.436Z,216
2019-04-03T04:52:09.396Z,220
2019-04-03T04:57:09.552Z,221
2019-04-03T05:02:09.404Z,222
2019-04-03T05:07:09.389Z,222
2019-04-03T05:12:10.010Z,224
2019-04-03T05:17:09.416Z,222
2019-04-03T05:17:36.345Z,223
2019-04-03T05:17:40.547Z,224
2019-04-03T05:22:09.357Z,227
2019-04-03T05:22:12.346Z,227
2019-04-03T05:22:16.340Z,225
2019-04-03T05:27:09.357Z,224
2019-04-03T05:32:10.414Z,223
2019-04-03T05:33:28.482Z,220
2019-04-03T05:33:36.587Z,222
2019-04-03T05:37:11.219Z,221
2019-04-03T05:42:09.355Z,224
2019-04-03T05:47:09.436Z,225
2019-04-03T05:52:09.368Z,224
2019-04-03T05:57:09.420Z,224
2019-04-03T05:57:40.343Z,223
2019-04-03T05:57:48.308Z,222
2019-04-03T05:58:28.477Z,222
2019-04-03T05:58:32.311Z,222
2019-04-03T06:01:41.953Z,227
2019-04-03T06:01:47.391Z,224
2019-04-03T06:02:15.343Z,227
2019-04-03T06:07:09.354Z,224
2019-04-03T06:12:09.746Z,222
2019-04-03T06:17:09.326Z,219
2019-04-03T06:22:10.247Z,224
2019-04-03T06:27:10.332Z,225
2019-04-03T06:27:41.553Z,224
2019-04-03T06:28:28.270Z,224
2019-04-03T06:32:09.323Z,226
2019-04-03T06:37:09.318Z,224
2019-04-03T06:39:15.422Z,221
2019-04-03T06:39:22.267Z,222
2019-04-03T06:42:09.308Z,223
2019-04-03T06:44:03.261Z,224
2019-04-03T06:44:20.255Z,223
2019-04-03T06:47:09.293Z,223
2019-04-03T06:52:09.295Z,223
2019-04-03T06:57:09.319Z,223
2019-04-03T07:02:09.303Z,224
2019-04-03T07:07:09.267Z,222
2019-04-03T07:12:07.260Z,226
2019-04-03T07:12:09.297Z,227
2019-04-03T07:12:11.210Z,227
2019-04-03T07:17:09.304Z,225
2019-04-03T07:22:09.291Z,226
2019-04-03T07:27:09.266Z,224
2019-04-03T07:32:09.250Z,225
2019-04-03T07:37:09.220Z,225
2019-04-03T07:42:09.553Z,225
2019-04-03T07:47:09.379Z,225
2019-04-03T07:52:09.256Z,226
2019-04-03T07:57:10.463Z,222
2019-04-03T08:02:11.842Z,224
2019-04-03T08:02:33.528Z,225
2019-04-03T08:02:35.163Z,225
2019-04-03T08:07:09.202Z,223
2019-04-03T08:12:09.240Z,224
2019-04-03T08:14:31.211Z,224
2019-04-03T08:14:41.093Z,225
2019-04-03T08:17:09.253Z,221
2019-04-03T08:22:09.379Z,227
2019-04-03T08:27:09.299Z,225
2019-04-03T08:32:09.388Z,227
2019-04-03T08:35:02.189Z,225
2019-04-03T08:35:04.322Z,226
2019-04-03T08:37:09.990Z,224
2019-04-03T08:42:09.202Z,224
2019-04-03T08:47:09.195Z,223
2019-04-03T08:52:09.316Z,223
2019-04-03T08:57:09.222Z,225
2019-04-03T09:02:12.174Z,228
2019-04-03T09:07:09.176Z,227
2019-04-03T09:12:09.297Z,225
2019-04-03T09:17:09.131Z,227
2019-04-03T09:22:09.175Z,227
2019-04-03T09:27:10.036Z,225
2019-04-03T09:32:09.125Z,226
2019-04-03T09:37:09.138Z,227
2019-04-03T09:38:42.080Z,229
2019-04-03T09:39:06.098Z,229
2019-04-03T09:42:09.152Z,229
2019-04-03T09:44:56.169Z,228
2019-04-03T09:44:58.174Z,228
2019-04-03T09:47:09.475Z,228
2019-04-03T09:52:09.203Z,228
2019-04-03T09:57:09.106Z,226
2019-04-03T10:02:09.268Z,226
2019-04-03T10:07:09.366Z,228
2019-04-03T10:12:09.184Z,225
2019-04-03T10:17:09.411Z,226
2019-04-03T10:22:09.104Z,225
2019-04-03T10:26:31.305Z,227
2019-04-03T10:26:34.034Z,227
2019-04-03T10:27:11.053Z,228
2019-04-03T10:32:09.128Z,224
2019-04-03T10:37:09.185Z,223
2019-04-03T10:42:09.098Z,223
2019-04-03T10:47:09.080Z,224
2019-04-03T10:50:58.021Z,224
2019-04-03T10:51:10.159Z,225
2019-04-03T10:52:09.089Z,224
2019-04-03T10:57:09.057Z,226
2019-04-03T10:58:40.298Z,228
2019-04-03T10:59:10.217Z,227
2019-04-03T11:02:09.057Z,224
2019-04-03T11:07:09.049Z,222
2019-04-03T11:12:10.252Z,225
2019-04-03T11:17:09.175Z,222
2019-04-03T11:22:09.471Z,225
2019-04-03T11:27:09.065Z,225
2019-04-03T11:32:09.911Z,226
2019-04-03T11:37:09.056Z,225
2019-04-03T11:42:09.034Z,227
2019-04-03T11:47:09.227Z,227
2019-04-03T11:52:09.031Z,227
2019-04-03T11:57:09.003Z,225
2019-04-03T12:02:08.999Z,226
2019-04-03T12:07:08.966Z,228
2019-04-03T12:12:10.513Z,226
2019-04-03T12:17:08.973Z,227
2019-04-03T12:22:08.987Z,227
2019-04-03T12:27:09.084Z,227
2019-04-03T12:32:09.495Z,224
2019-04-03T12:37:09.317Z,227
2019-04-03T12:42:09.601Z,227
2019-04-03T12:47:12.338Z,228
2019-04-03T12:52:08.961Z,227
2019-04-03T12:56:52.884Z,227
2019-04-03T12:56:56.887Z,227
2019-04-03T12:57:08.966Z,227
2019-04-03T13:02:09.403Z,226
2019-04-03T13:07:08.955Z,227
2019-04-03T13:08:25.111Z,229
2019-04-03T13:08:28.899Z,230
2019-04-03T13:12:08.921Z,229
2019-04-03T13:17:08.930Z,227
2019-04-03T13:22:10.968Z,227
2019-04-03T13:27:09.073Z,224
2019-04-03T13:32:08.916Z,226
2019-04-03T13:37:08.914Z,225
2019-04-03T13:41:36.871Z,227
2019-04-03T13:42:08.910Z,225
2019-04-03T13:42:21.076Z,225
2019-04-03T13:47:09.214Z,224
2019-04-03T13:52:09.888Z,218
2019-04-03T13:57:08.960Z,222
2019-04-03T14:02:08.940Z,220
2019-04-03T14:07:09.365Z,227
2019-04-03T14:12:08.908Z,224
2019-04-03T14:17:08.886Z,227
2019-04-03T14:22:08.874Z,229
2019-04-03T14:27:19.175Z,227
2019-04-03T14:32:09.156Z,228
2019-04-03T14:37:08.847Z,231
2019-04-03T14:42:08.830Z,226
2019-04-03T14:47:08.947Z,225
2019-04-03T14:52:08.859Z,228
2019-04-03T14:57:14.378Z,225
2019-04-03T15:02:08.851Z,226
2019-04-03T15:07:10.020Z,228
2019-04-03T15:12:08.915Z,225
2019-04-03T15:17:09.195Z,222
2019-04-03T15:22:08.825Z,230
2019-04-03T15:27:08.856Z,229
2019-04-03T15:32:08.817Z,225
2019-04-03T15:37:09.273Z,229
2019-04-03T15:42:03.958Z,225
2019-04-03T15:42:08.467Z,224
2019-04-03T15:42:08.784Z,224
2019-04-03T15:47:09.776Z,225
2019-04-03T15:52:10.996Z,221
2019-04-03T15:57:09.053Z,222
2019-04-03T16:02:09.010Z,224
2019-04-03T16:07:09.293Z,224
2019-04-03T16:12:09.433Z,221
2019-04-03T16:17:08.793Z,225
2019-04-03T16:22:09.187Z,221
2019-04-03T16:27:08.727Z,222
2019-04-03T16:32:09.063Z,222
2019-04-03T16:37:08.754Z,223
2019-04-03T16:42:08.739Z,219
2019-04-03T16:47:08.786Z,222
2019-04-03T16:52:08.704Z,222
2019-04-03T16:57:09.126Z,224
2019-04-03T17:02:08.753Z,222
2019-04-03T17:07:08.775Z,216
2019-04-03T17:12:08.699Z,219
2019-04-03T17:17:12.393Z,218
2019-04-03T17:22:08.731Z,218
2019-04-03T17:27:08.674Z,220
2019-04-03T17:32:09.591Z,216
2019-04-03T17:37:08.840Z,213
2019-04-03T17:42:09.175Z,215
2019-04-03T17:47:08.668Z,222
2019-04-03T17:52:08.691Z,217
2019-04-03T17:57:08.661Z,221
2019-04-03T18:02:08.654Z,219
2019-04-03T18:07:08.698Z,221
2019-04-03T18:12:08.659Z,221
2019-04-03T18:17:08.685Z,223
2019-04-03T18:22:08.661Z,224
2019-04-03T18:27:08.756Z,221
2019-04-03T18:32:08.647Z,221
2019-04-03T18:37:08.649Z,220
2019-04-03T18:42:08.609Z,221
2019-04-03T18:47:08.632Z,220
2019-04-03T18:52:08.750Z,223
2019-04-03T18:57:08.582Z,224
2019-04-03T19:02:08.604Z,224
2019-04-03T19:07:08.613Z,222
2019-04-03T19:12:09.353Z,223
2019-04-03T19:14:57.530Z,223
2019-04-03T19:15:05.557Z,222
2019-04-03T19:17:08.586Z,224
2019-04-03T19:22:08.597Z,225
2019-04-03T19:27:08.635Z,225
2019-04-03T19:32:11.742Z,224
2019-04-03T19:37:08.596Z,223
2019-04-03T19:42:08.569Z,220
2019-04-03T19:47:08.556Z,221
2019-04-03T19:52:08.557Z,219
2019-04-03T19:57:08.561Z,225
2019-04-03T20:02:09.482Z,225
2019-04-03T20:07:08.578Z,225
2019-04-03T20:12:08.559Z,225
2019-04-03T20:17:08.516Z,226
2019-04-03T20:22:08.545Z,225
2019-04-03T20:27:08.494Z,221
2019-04-03T20:32:08.501Z,220
2019-04-03T20:37:08.493Z,224
2019-04-03T20:42:08.524Z,225
2019-04-03T20:47:08.530Z,224
2019-04-03T20:52:10.632Z,226
2019-04-03T20:57:08.481Z,227
2019-04-03T21:02:08.974Z,228
2019-04-03T21:07:08.496Z,229
2019-04-03T21:12:08.499Z,230
2019-04-03T21:17:08.460Z,230
2019-04-03T21:22:08.495Z,227
2019-04-03T21:27:08.773Z,225
2019-04-03T21:32:10.603Z,226
2019-04-03T21:37:09.467Z,227
2019-04-03T21:42:08.725Z,228
2019-04-03T21:46:48.639Z,230
2019-04-03T21:46:52.645Z,230
2019-04-03T21:47:11.359Z,230
2019-04-03T21:52:08.678Z,229
2019-04-03T21:52:08.716Z,229
2019-04-03T21:52:16.655Z,229
2019-04-03T21:57:08.738Z,230
2019-04-03T22:02:08.684Z,228
2019-04-03T22:07:08.663Z,231
2019-04-03T22:12:08.684Z,231
2019-04-03T22:17:08.654Z,233
2019-04-03T22:20:44.684Z,234
2019-04-03T22:20:48.622Z,234
2019-04-03T22:22:08.671Z,235
2019-04-03T22:27:11.272Z,229
2019-04-03T22:32:08.689Z,229
2019-04-03T22:37:08.653Z,226
2019-04-03T22:42:08.672Z,230
2019-04-03T22:47:08.640Z,229
2019-04-03T22:51:44.581Z,230
2019-04-03T22:52:00.573Z,230
2019-04-03T22:52:09.280Z,230
2019-04-03T22:57:08.646Z,229
2019-04-03T22:57:12.589Z,229
2019-04-03T22:57:19.381Z,230
2019-04-03T23:02:08.602Z,230
2019-04-03T23:07:08.643Z,229
2019-04-03T23:12:08.599Z,232
2019-04-03T23:17:08.633Z,230
2019-04-03T23:22:08.599Z,229
2019-04-03T23:27:08.627Z,230
2019-04-03T23:32:08.642Z,231
2019-04-03T23:37:08.603Z,231
2019-04-03T23:37:55.778Z,231
2019-04-03T23:37:59.540Z,231
2019-04-03T23:42:08.612Z,230
2019-04-03T23:44:31.529Z,231
2019-04-03T23:44:35.547Z,231
2019-04-03T23:47:08.565Z,231
2019-04-03T23:51:28.095Z,232
2019-04-03T23:51:39.565Z,232
2019-04-03T23:52:08.570Z,231
2019-04-03T23:57:09.690Z,231
